sensor_id;sensor_type;location;lat;lon;timestamp;P1;durP1;ratioP1;P2;durP2;ratioP2
64637;SDS011;51049;45.046;38.950;2023-05-07T00:00:21;4.80;;;1.73;;
64637;SDS011;51049;45.046;38.950;2023-05-07T00:02:47;10.27;;;1.90;;
64637;SDS011;51049;45.046;38.950;2023-05-07T00:05:13;7.25;;;2.15;;
64637;SDS011;51049;45.046;38.950;2023-05-07T00:07:39;2.47;;;1.17;;
64637;SDS011;51049;45.046;38.950;2023-05-07T00:10:05;4.60;;;1.63;;
64637;SDS011;51049;45.046;38.950;2023-05-07T00:12:32;11.40;;;2.15;;
64637;SDS011;51049;45.046;38.950;2023-05-07T00:15:02;5.40;;;1.80;;
64637;SDS011;51049;45.046;38.950;2023-05-07T00:17:29;1.98;;;1.15;;
64637;SDS011;51049;45.046;38.950;2023-05-07T00:19:55;7.70;;;1.88;;
64637;SDS011;51049;45.046;38.950;2023-05-07T00:22:21;5.13;;;1.70;;
64637;SDS011;51049;45.046;38.950;2023-05-07T00:24:47;3.30;;;1.65;;
64637;SDS011;51049;45.046;38.950;2023-05-07T00:27:13;6.32;;;2.03;;
64637;SDS011;51049;45.046;38.950;2023-05-07T00:29:39;4.30;;;2.13;;
64637;SDS011;51049;45.046;38.950;2023-05-07T00:32:05;3.28;;;1.70;;
64637;SDS011;51049;45.046;38.950;2023-05-07T00:34:31;2.72;;;1.27;;
64637;SDS011;51049;45.046;38.950;2023-05-07T00:36:57;8.70;;;1.70;;
64637;SDS011;51049;45.046;38.950;2023-05-07T00:39:22;4.88;;;1.70;;
64637;SDS011;51049;45.046;38.950;2023-05-07T00:41:48;2.45;;;1.67;;
64637;SDS011;51049;45.046;38.950;2023-05-07T00:44:14;9.57;;;2.78;;
64637;SDS011;51049;45.046;38.950;2023-05-07T00:46:40;5.13;;;2.25;;
64637;SDS011;51049;45.046;38.950;2023-05-07T00:49:06;7.70;;;2.03;;
64637;SDS011;51049;45.046;38.950;2023-05-07T00:51:32;6.35;;;1.95;;
64637;SDS011;51049;45.046;38.950;2023-05-07T00:54:00;5.22;;;1.90;;
64637;SDS011;51049;45.046;38.950;2023-05-07T00:56:27;10.70;;;2.10;;
64637;SDS011;51049;45.046;38.950;2023-05-07T00:58:54;3.08;;;1.50;;
64637;SDS011;51049;45.046;38.950;2023-05-07T01:01:20;6.07;;;2.28;;
64637;SDS011;51049;45.046;38.950;2023-05-07T01:03:46;4.15;;;1.45;;
64637;SDS011;51049;45.046;38.950;2023-05-07T01:06:12;4.30;;;1.45;;
64637;SDS011;51049;45.046;38.950;2023-05-07T01:08:42;8.90;;;1.77;;
64637;SDS011;51049;45.046;38.950;2023-05-07T01:11:08;4.63;;;1.80;;
64637;SDS011;51049;45.046;38.950;2023-05-07T01:13:35;3.58;;;1.90;;
64637;SDS011;51049;45.046;38.950;2023-05-07T01:16:03;3.13;;;1.70;;
64637;SDS011;51049;45.046;38.950;2023-05-07T01:18:30;2.22;;;1.30;;
64637;SDS011;51049;45.046;38.950;2023-05-07T01:20:57;8.52;;;1.63;;
64637;SDS011;51049;45.046;38.950;2023-05-07T01:23:26;4.95;;;1.27;;
64637;SDS011;51049;45.046;38.950;2023-05-07T01:25:53;4.35;;;1.67;;
64637;SDS011;51049;45.046;38.950;2023-05-07T01:28:21;7.22;;;1.77;;
64637;SDS011;51049;45.046;38.950;2023-05-07T01:30:49;2.25;;;1.40;;
64637;SDS011;51049;45.046;38.950;2023-05-07T01:33:19;4.70;;;1.98;;
64637;SDS011;51049;45.046;38.950;2023-05-07T01:35:53;3.75;;;1.33;;
64637;SDS011;51049;45.046;38.950;2023-05-07T01:38:20;3.28;;;1.58;;
64637;SDS011;51049;45.046;38.950;2023-05-07T01:40:47;4.47;;;1.67;;
64637;SDS011;51049;45.046;38.950;2023-05-07T01:43:13;4.72;;;1.55;;
64637;SDS011;51049;45.046;38.950;2023-05-07T01:45:40;3.90;;;1.88;;
64637;SDS011;51049;45.046;38.950;2023-05-07T01:48:07;3.10;;;1.38;;
64637;SDS011;51049;45.046;38.950;2023-05-07T01:50:35;4.40;;;2.13;;
64637;SDS011;51049;45.046;38.950;2023-05-07T01:53:02;5.38;;;1.88;;
64637;SDS011;51049;45.046;38.950;2023-05-07T01:55:28;1.73;;;1.00;;
64637;SDS011;51049;45.046;38.950;2023-05-07T01:57:54;4.13;;;1.42;;
64637;SDS011;51049;45.046;38.950;2023-05-07T02:00:20;3.90;;;1.95;;
64637;SDS011;51049;45.046;38.950;2023-05-07T02:02:46;3.03;;;1.45;;
64637;SDS011;51049;45.046;38.950;2023-05-07T02:05:38;4.75;;;1.55;;
64637;SDS011;51049;45.046;38.950;2023-05-07T02:08:11;8.25;;;2.30;;
64637;SDS011;51049;45.046;38.950;2023-05-07T02:10:37;2.78;;;1.35;;
64637;SDS011;51049;45.046;38.950;2023-05-07T02:13:07;5.57;;;1.50;;
64637;SDS011;51049;45.046;38.950;2023-05-07T02:15:33;3.00;;;1.45;;
64637;SDS011;51049;45.046;38.950;2023-05-07T02:18:02;6.97;;;1.33;;
64637;SDS011;51049;45.046;38.950;2023-05-07T02:20:28;4.50;;;1.30;;
64637;SDS011;51049;45.046;38.950;2023-05-07T02:22:55;4.45;;;1.80;;
64637;SDS011;51049;45.046;38.950;2023-05-07T02:25:21;7.22;;;1.50;;
64637;SDS011;51049;45.046;38.950;2023-05-07T02:27:47;10.10;;;2.22;;
64637;SDS011;51049;45.046;38.950;2023-05-07T02:30:14;3.58;;;1.15;;
64637;SDS011;51049;45.046;38.950;2023-05-07T02:32:40;3.35;;;1.90;;
64637;SDS011;51049;45.046;38.950;2023-05-07T02:35:07;6.95;;;1.48;;
64637;SDS011;51049;45.046;38.950;2023-05-07T02:37:33;3.45;;;1.40;;
64637;SDS011;51049;45.046;38.950;2023-05-07T02:40:00;3.50;;;1.45;;
64637;SDS011;51049;45.046;38.950;2023-05-07T02:42:26;3.53;;;1.75;;
64637;SDS011;51049;45.046;38.950;2023-05-07T02:44:52;6.40;;;1.63;;
64637;SDS011;51049;45.046;38.950;2023-05-07T02:47:18;4.05;;;1.00;;
64637;SDS011;51049;45.046;38.950;2023-05-07T02:49:45;3.03;;;1.27;;
64637;SDS011;51049;45.046;38.950;2023-05-07T02:52:10;3.40;;;1.55;;
64637;SDS011;51049;45.046;38.950;2023-05-07T02:54:37;3.58;;;1.38;;
64637;SDS011;51049;45.046;38.950;2023-05-07T02:57:02;2.28;;;1.20;;
64637;SDS011;51049;45.046;38.950;2023-05-07T02:59:29;3.13;;;1.50;;
64637;SDS011;51049;45.046;38.950;2023-05-07T03:01:56;3.72;;;1.50;;
64637;SDS011;51049;45.046;38.950;2023-05-07T03:04:22;2.88;;;1.38;;
64637;SDS011;51049;45.046;38.950;2023-05-07T03:06:48;3.25;;;1.63;;
64637;SDS011;51049;45.046;38.950;2023-05-07T03:09:14;8.05;;;1.45;;
64637;SDS011;51049;45.046;38.950;2023-05-07T03:11:40;3.10;;;1.80;;
64637;SDS011;51049;45.046;38.950;2023-05-07T03:14:06;3.70;;;1.48;;
64637;SDS011;51049;45.046;38.950;2023-05-07T03:16:32;7.65;;;1.10;;
64637;SDS011;51049;45.046;38.950;2023-05-07T03:18:58;7.03;;;1.50;;
64637;SDS011;51049;45.046;38.950;2023-05-07T03:21:24;1.67;;;0.95;;
64637;SDS011;51049;45.046;38.950;2023-05-07T03:23:51;4.35;;;2.28;;
64637;SDS011;51049;45.046;38.950;2023-05-07T03:26:17;5.28;;;2.05;;
64637;SDS011;51049;45.046;38.950;2023-05-07T03:28:44;4.85;;;1.63;;
64637;SDS011;51049;45.046;38.950;2023-05-07T03:31:12;2.55;;;1.33;;
64637;SDS011;51049;45.046;38.950;2023-05-07T03:33:47;8.15;;;1.40;;
64637;SDS011;51049;45.046;38.950;2023-05-07T03:36:18;1.90;;;1.20;;
64637;SDS011;51049;45.046;38.950;2023-05-07T03:38:44;4.93;;;1.70;;
64637;SDS011;51049;45.046;38.950;2023-05-07T03:41:11;4.65;;;1.73;;
64637;SDS011;51049;45.046;38.950;2023-05-07T03:43:37;3.60;;;1.55;;
64637;SDS011;51049;45.046;38.950;2023-05-07T03:46:07;3.20;;;1.33;;
64637;SDS011;51049;45.046;38.950;2023-05-07T03:48:33;3.15;;;1.25;;
64637;SDS011;51049;45.046;38.950;2023-05-07T03:50:59;7.13;;;1.30;;
64637;SDS011;51049;45.046;38.950;2023-05-07T03:53:29;4.78;;;1.27;;
64637;SDS011;51049;45.046;38.950;2023-05-07T03:55:55;6.13;;;1.42;;
64637;SDS011;51049;45.046;38.950;2023-05-07T03:58:21;5.65;;;1.08;;
64637;SDS011;51049;45.046;38.950;2023-05-07T04:00:47;3.53;;;1.30;;
64637;SDS011;51049;45.046;38.950;2023-05-07T04:03:21;2.63;;;1.30;;
64637;SDS011;51049;45.046;38.950;2023-05-07T04:05:47;1.50;;;0.90;;
64637;SDS011;51049;45.046;38.950;2023-05-07T04:08:13;2.88;;;1.20;;
64637;SDS011;51049;45.046;38.950;2023-05-07T04:10:45;4.85;;;1.60;;
64637;SDS011;51049;45.046;38.950;2023-05-07T04:13:12;4.47;;;1.30;;
64637;SDS011;51049;45.046;38.950;2023-05-07T04:15:38;7.88;;;1.35;;
64637;SDS011;51049;45.046;38.950;2023-05-07T04:18:08;4.00;;;1.10;;
64637;SDS011;51049;45.046;38.950;2023-05-07T04:20:35;5.85;;;1.27;;
64637;SDS011;51049;45.046;38.950;2023-05-07T04:23:07;5.32;;;0.90;;
64637;SDS011;51049;45.046;38.950;2023-05-07T04:25:33;1.92;;;1.00;;
64637;SDS011;51049;45.046;38.950;2023-05-07T04:28:07;6.03;;;1.30;;
64637;SDS011;51049;45.046;38.950;2023-05-07T04:30:33;5.57;;;1.35;;
64637;SDS011;51049;45.046;38.950;2023-05-07T04:33:01;2.53;;;0.90;;
64637;SDS011;51049;45.046;38.950;2023-05-07T04:35:29;3.22;;;1.40;;
64637;SDS011;51049;45.046;38.950;2023-05-07T04:37:55;5.45;;;1.20;;
64637;SDS011;51049;45.046;38.950;2023-05-07T04:40:21;3.80;;;1.38;;
64637;SDS011;51049;45.046;38.950;2023-05-07T04:42:48;7.28;;;1.83;;
64637;SDS011;51049;45.046;38.950;2023-05-07T04:45:14;2.72;;;1.20;;
64637;SDS011;51049;45.046;38.950;2023-05-07T04:47:43;7.28;;;1.05;;
64637;SDS011;51049;45.046;38.950;2023-05-07T04:50:09;2.08;;;1.30;;
64637;SDS011;51049;45.046;38.950;2023-05-07T04:52:37;2.17;;;1.00;;
64637;SDS011;51049;45.046;38.950;2023-05-07T04:55:04;3.80;;;1.55;;
64637;SDS011;51049;45.046;38.950;2023-05-07T04:57:35;4.85;;;1.40;;
64637;SDS011;51049;45.046;38.950;2023-05-07T05:00:01;4.55;;;1.40;;
64637;SDS011;51049;45.046;38.950;2023-05-07T05:02:30;5.95;;;1.50;;
64637;SDS011;51049;45.046;38.950;2023-05-07T05:04:56;1.95;;;0.95;;
64637;SDS011;51049;45.046;38.950;2023-05-07T05:07:24;2.78;;;1.30;;
64637;SDS011;51049;45.046;38.950;2023-05-07T05:09:51;3.30;;;1.13;;
64637;SDS011;51049;45.046;38.950;2023-05-07T05:12:17;8.32;;;1.88;;
64637;SDS011;51049;45.046;38.950;2023-05-07T05:14:43;2.38;;;0.98;;
64637;SDS011;51049;45.046;38.950;2023-05-07T05:17:10;13.07;;;1.55;;
64637;SDS011;51049;45.046;38.950;2023-05-07T05:19:36;2.28;;;1.02;;
64637;SDS011;51049;45.046;38.950;2023-05-07T05:22:02;3.20;;;1.58;;
64637;SDS011;51049;45.046;38.950;2023-05-07T05:24:32;9.25;;;1.10;;
64637;SDS011;51049;45.046;38.950;2023-05-07T05:26:58;6.43;;;1.30;;
64637;SDS011;51049;45.046;38.950;2023-05-07T05:29:29;11.93;;;1.73;;
64637;SDS011;51049;45.046;38.950;2023-05-07T05:31:57;2.35;;;1.15;;
64637;SDS011;51049;45.046;38.950;2023-05-07T05:34:24;2.05;;;1.02;;
64637;SDS011;51049;45.046;38.950;2023-05-07T05:36:50;2.35;;;1.20;;
64637;SDS011;51049;45.046;38.950;2023-05-07T05:39:17;1.73;;;0.98;;
64637;SDS011;51049;45.046;38.950;2023-05-07T05:41:45;2.65;;;1.10;;
64637;SDS011;51049;45.046;38.950;2023-05-07T05:44:12;4.82;;;1.15;;
64637;SDS011;51049;45.046;38.950;2023-05-07T05:46:40;6.63;;;1.60;;
64637;SDS011;51049;45.046;38.950;2023-05-07T05:49:06;5.38;;;1.20;;
64637;SDS011;51049;45.046;38.950;2023-05-07T05:51:32;2.92;;;1.27;;
64637;SDS011;51049;45.046;38.950;2023-05-07T05:53:59;3.72;;;1.10;;
64637;SDS011;51049;45.046;38.950;2023-05-07T05:56:25;4.53;;;1.25;;
64637;SDS011;51049;45.046;38.950;2023-05-07T05:58:51;8.70;;;1.60;;
64637;SDS011;51049;45.046;38.950;2023-05-07T06:01:17;3.47;;;1.35;;
64637;SDS011;51049;45.046;38.950;2023-05-07T06:03:44;4.03;;;1.10;;
64637;SDS011;51049;45.046;38.950;2023-05-07T06:06:13;5.60;;;1.30;;
64637;SDS011;51049;45.046;38.950;2023-05-07T06:08:41;1.92;;;1.02;;
64637;SDS011;51049;45.046;38.950;2023-05-07T06:11:08;5.55;;;1.15;;
64637;SDS011;51049;45.046;38.950;2023-05-07T06:13:37;4.22;;;2.08;;
64637;SDS011;51049;45.046;38.950;2023-05-07T06:16:03;3.08;;;1.42;;
64637;SDS011;51049;45.046;38.950;2023-05-07T06:18:30;2.65;;;1.00;;
64637;SDS011;51049;45.046;38.950;2023-05-07T06:20:55;3.85;;;1.17;;
64637;SDS011;51049;45.046;38.950;2023-05-07T06:23:25;2.30;;;1.00;;
64637;SDS011;51049;45.046;38.950;2023-05-07T06:25:51;5.22;;;1.40;;
64637;SDS011;51049;45.046;38.950;2023-05-07T06:28:19;2.35;;;1.17;;
64637;SDS011;51049;45.046;38.950;2023-05-07T06:30:46;5.38;;;1.77;;
64637;SDS011;51049;45.046;38.950;2023-05-07T06:33:13;2.33;;;1.10;;
64637;SDS011;51049;45.046;38.950;2023-05-07T06:35:40;8.93;;;1.63;;
64637;SDS011;51049;45.046;38.950;2023-05-07T06:38:07;2.50;;;1.10;;
64637;SDS011;51049;45.046;38.950;2023-05-07T06:40:33;6.28;;;1.30;;
64637;SDS011;51049;45.046;38.950;2023-05-07T06:42:59;4.43;;;1.40;;
64637;SDS011;51049;45.046;38.950;2023-05-07T06:45:39;3.10;;;1.17;;
64637;SDS011;51049;45.046;38.950;2023-05-07T06:48:07;2.92;;;1.23;;
64637;SDS011;51049;45.046;38.950;2023-05-07T06:50:43;3.30;;;1.10;;
64637;SDS011;51049;45.046;38.950;2023-05-07T06:53:10;3.83;;;1.40;;
64637;SDS011;51049;45.046;38.950;2023-05-07T06:55:36;8.93;;;1.23;;
64637;SDS011;51049;45.046;38.950;2023-05-07T06:58:04;7.60;;;1.77;;
64637;SDS011;51049;45.046;38.950;2023-05-07T07:00:31;3.67;;;1.23;;
64637;SDS011;51049;45.046;38.950;2023-05-07T07:02:57;5.18;;;1.77;;
64637;SDS011;51049;45.046;38.950;2023-05-07T07:05:26;4.57;;;1.55;;
64637;SDS011;51049;45.046;38.950;2023-05-07T07:07:53;6.68;;;1.52;;
64637;SDS011;51049;45.046;38.950;2023-05-07T07:10:20;5.88;;;1.20;;
64637;SDS011;51049;45.046;38.950;2023-05-07T07:12:48;2.88;;;1.55;;
64637;SDS011;51049;45.046;38.950;2023-05-07T07:15:15;6.97;;;1.00;;
64637;SDS011;51049;45.046;38.950;2023-05-07T07:17:42;3.53;;;1.58;;
64637;SDS011;51049;45.046;38.950;2023-05-07T07:20:08;9.18;;;1.92;;
64637;SDS011;51049;45.046;38.950;2023-05-07T07:22:34;7.65;;;1.73;;
64637;SDS011;51049;45.046;38.950;2023-05-07T07:25:00;2.80;;;1.40;;
64637;SDS011;51049;45.046;38.950;2023-05-07T07:27:26;4.93;;;1.50;;
64637;SDS011;51049;45.046;38.950;2023-05-07T07:29:52;3.33;;;1.23;;
64637;SDS011;51049;45.046;38.950;2023-05-07T07:32:18;12.70;;;2.08;;
64637;SDS011;51049;45.046;38.950;2023-05-07T07:34:45;2.45;;;1.45;;
64637;SDS011;51049;45.046;38.950;2023-05-07T07:37:12;3.80;;;1.70;;
64637;SDS011;51049;45.046;38.950;2023-05-07T07:39:38;11.13;;;1.63;;
64637;SDS011;51049;45.046;38.950;2023-05-07T07:42:05;6.05;;;1.60;;
64637;SDS011;51049;45.046;38.950;2023-05-07T07:44:31;5.70;;;2.00;;
64637;SDS011;51049;45.046;38.950;2023-05-07T07:47:03;3.15;;;1.20;;
64637;SDS011;51049;45.046;38.950;2023-05-07T07:49:29;5.80;;;1.75;;
64637;SDS011;51049;45.046;38.950;2023-05-07T07:51:58;7.63;;;2.05;;
64637;SDS011;51049;45.046;38.950;2023-05-07T07:54:25;5.57;;;1.73;;
64637;SDS011;51049;45.046;38.950;2023-05-07T07:56:52;5.53;;;1.63;;
64637;SDS011;51049;45.046;38.950;2023-05-07T07:59:18;4.10;;;1.45;;
64637;SDS011;51049;45.046;38.950;2023-05-07T08:01:47;6.85;;;2.15;;
64637;SDS011;51049;45.046;38.950;2023-05-07T08:04:16;4.78;;;1.73;;
64637;SDS011;51049;45.046;38.950;2023-05-07T08:06:43;4.22;;;1.70;;
64637;SDS011;51049;45.046;38.950;2023-05-07T08:09:10;6.20;;;1.65;;
64637;SDS011;51049;45.046;38.950;2023-05-07T08:11:38;4.72;;;1.58;;
64637;SDS011;51049;45.046;38.950;2023-05-07T08:14:04;10.15;;;1.90;;
64637;SDS011;51049;45.046;38.950;2023-05-07T08:16:30;9.82;;;1.17;;
64637;SDS011;51049;45.046;38.950;2023-05-07T08:18:58;5.45;;;1.88;;
64637;SDS011;51049;45.046;38.950;2023-05-07T08:21:25;7.95;;;1.80;;
64637;SDS011;51049;45.046;38.950;2023-05-07T08:23:52;3.45;;;1.55;;
64637;SDS011;51049;45.046;38.950;2023-05-07T08:26:17;4.30;;;1.67;;
64637;SDS011;51049;45.046;38.950;2023-05-07T08:28:44;13.77;;;1.95;;
64637;SDS011;51049;45.046;38.950;2023-05-07T08:31:10;4.78;;;1.95;;
64637;SDS011;51049;45.046;38.950;2023-05-07T08:33:38;6.05;;;2.13;;
64637;SDS011;51049;45.046;38.950;2023-05-07T08:36:04;5.43;;;1.83;;
64637;SDS011;51049;45.046;38.950;2023-05-07T08:38:31;3.92;;;1.67;;
64637;SDS011;51049;45.046;38.950;2023-05-07T08:40:57;6.28;;;1.65;;
64637;SDS011;51049;45.046;38.950;2023-05-07T08:43:26;6.53;;;1.77;;
64637;SDS011;51049;45.046;38.950;2023-05-07T08:45:56;5.35;;;1.85;;
64637;SDS011;51049;45.046;38.950;2023-05-07T08:48:29;3.60;;;1.80;;
64637;SDS011;51049;45.046;38.950;2023-05-07T08:51:04;6.65;;;1.60;;
64637;SDS011;51049;45.046;38.950;2023-05-07T08:53:31;3.47;;;1.65;;
64637;SDS011;51049;45.046;38.950;2023-05-07T08:55:57;12.63;;;1.92;;
64637;SDS011;51049;45.046;38.950;2023-05-07T08:58:24;4.32;;;1.90;;
64637;SDS011;51049;45.046;38.950;2023-05-07T09:00:51;6.85;;;1.83;;
64637;SDS011;51049;45.046;38.950;2023-05-07T09:03:20;2.85;;;1.48;;
64637;SDS011;51049;45.046;38.950;2023-05-07T09:05:49;4.22;;;1.83;;
64637;SDS011;51049;45.046;38.950;2023-05-07T09:08:17;7.35;;;1.52;;
64637;SDS011;51049;45.046;38.950;2023-05-07T09:10:45;8.32;;;2.22;;
64637;SDS011;51049;45.046;38.950;2023-05-07T09:13:14;11.70;;;2.15;;
64637;SDS011;51049;45.046;38.950;2023-05-07T09:15:40;5.38;;;1.60;;
64637;SDS011;51049;45.046;38.950;2023-05-07T09:18:07;7.20;;;1.98;;
64637;SDS011;51049;45.046;38.950;2023-05-07T09:20:38;4.50;;;1.60;;
64637;SDS011;51049;45.046;38.950;2023-05-07T09:23:05;7.63;;;1.80;;
64637;SDS011;51049;45.046;38.950;2023-05-07T09:25:33;3.97;;;1.65;;
64637;SDS011;51049;45.046;38.950;2023-05-07T09:28:06;6.57;;;1.63;;
64637;SDS011;51049;45.046;38.950;2023-05-07T09:30:33;8.25;;;2.00;;
64637;SDS011;51049;45.046;38.950;2023-05-07T09:33:03;7.53;;;1.90;;
64637;SDS011;51049;45.046;38.950;2023-05-07T09:35:32;3.67;;;1.85;;
64637;SDS011;51049;45.046;38.950;2023-05-07T09:38:03;5.70;;;1.70;;
64637;SDS011;51049;45.046;38.950;2023-05-07T09:40:32;5.25;;;1.92;;
64637;SDS011;51049;45.046;38.950;2023-05-07T09:43:10;7.13;;;1.88;;
64637;SDS011;51049;45.046;38.950;2023-05-07T09:45:39;5.97;;;2.00;;
64637;SDS011;51049;45.046;38.950;2023-05-07T09:48:07;8.35;;;1.98;;
64637;SDS011;51049;45.046;38.950;2023-05-07T09:50:39;16.92;;;2.63;;
64637;SDS011;51049;45.046;38.950;2023-05-07T09:53:12;4.60;;;1.65;;
64637;SDS011;51049;45.046;38.950;2023-05-07T09:55:40;3.35;;;1.60;;
64637;SDS011;51049;45.046;38.950;2023-05-07T09:58:07;8.15;;;2.08;;
64637;SDS011;51049;45.046;38.950;2023-05-07T10:00:34;3.65;;;1.58;;
64637;SDS011;51049;45.046;38.950;2023-05-07T10:03:08;10.18;;;1.73;;
64637;SDS011;51049;45.046;38.950;2023-05-07T10:05:48;6.72;;;1.90;;
64637;SDS011;51049;45.046;38.950;2023-05-07T10:08:19;4.20;;;2.00;;
64637;SDS011;51049;45.046;38.950;2023-05-07T10:10:48;7.05;;;2.28;;
64637;SDS011;51049;45.046;38.950;2023-05-07T10:13:18;5.10;;;1.73;;
64637;SDS011;51049;45.046;38.950;2023-05-07T10:15:47;3.53;;;1.67;;
64637;SDS011;51049;45.046;38.950;2023-05-07T10:18:14;8.10;;;3.08;;
64637;SDS011;51049;45.046;38.950;2023-05-07T10:20:43;16.63;;;7.60;;
64637;SDS011;51049;45.046;38.950;2023-05-07T10:23:13;12.65;;;3.40;;
64637;SDS011;51049;45.046;38.950;2023-05-07T10:25:45;22.35;;;4.78;;
64637;SDS011;51049;45.046;38.950;2023-05-07T10:28:19;24.20;;;8.10;;
64637;SDS011;51049;45.046;38.950;2023-05-07T10:30:59;13.27;;;5.75;;
64637;SDS011;51049;45.046;38.950;2023-05-07T10:33:38;18.23;;;4.85;;
64637;SDS011;51049;45.046;38.950;2023-05-07T10:36:06;14.30;;;3.53;;
64637;SDS011;51049;45.046;38.950;2023-05-07T10:38:33;16.50;;;4.45;;
64637;SDS011;51049;45.046;38.950;2023-05-07T10:41:01;5.55;;;2.30;;
64637;SDS011;51049;45.046;38.950;2023-05-07T10:43:40;3.10;;;1.50;;
64637;SDS011;51049;45.046;38.950;2023-05-07T10:46:17;6.45;;;1.85;;
64637;SDS011;51049;45.046;38.950;2023-05-07T10:51:29;11.32;;;2.28;;
64637;SDS011;51049;45.046;38.950;2023-05-07T10:56:47;13.27;;;2.80;;
64637;SDS011;51049;45.046;38.950;2023-05-07T11:01:55;5.68;;;2.47;;
64637;SDS011;51049;45.046;38.950;2023-05-07T11:04:35;7.90;;;3.07;;
64637;SDS011;51049;45.046;38.950;2023-05-07T11:07:29;6.07;;;2.58;;
64637;SDS011;51049;45.046;38.950;2023-05-07T11:10:01;10.38;;;2.47;;
64637;SDS011;51049;45.046;38.950;2023-05-07T11:12:55;13.40;;;3.10;;
64637;SDS011;51049;45.046;38.950;2023-05-07T11:15:37;11.38;;;2.85;;
64637;SDS011;51049;45.046;38.950;2023-05-07T11:18:16;7.57;;;2.75;;
64637;SDS011;51049;45.046;38.950;2023-05-07T11:26:11;8.82;;;2.75;;
64637;SDS011;51049;45.046;38.950;2023-05-07T11:28:39;9.73;;;3.35;;
64637;SDS011;51049;45.046;38.950;2023-05-07T11:31:06;10.38;;;3.22;;
64637;SDS011;51049;45.046;38.950;2023-05-07T11:33:34;12.10;;;3.78;;
64637;SDS011;51049;45.046;38.950;2023-05-07T11:36:03;13.00;;;4.93;;
64637;SDS011;51049;45.046;38.950;2023-05-07T11:38:36;23.05;;;7.25;;
64637;SDS011;51049;45.046;38.950;2023-05-07T11:41:04;27.27;;;7.35;;
64637;SDS011;51049;45.046;38.950;2023-05-07T11:43:30;10.55;;;4.80;;
64637;SDS011;51049;45.046;38.950;2023-05-07T11:46:19;8.85;;;3.70;;
64637;SDS011;51049;45.046;38.950;2023-05-07T11:48:43;11.52;;;3.75;;
64637;SDS011;51049;45.046;38.950;2023-05-07T11:51:10;10.88;;;4.15;;
64637;SDS011;51049;45.046;38.950;2023-05-07T11:53:38;11.80;;;4.38;;
64637;SDS011;51049;45.046;38.950;2023-05-07T11:56:09;11.57;;;5.50;;
64637;SDS011;51049;45.046;38.950;2023-05-07T11:58:36;9.52;;;4.22;;
64637;SDS011;51049;45.046;38.950;2023-05-07T12:01:02;8.88;;;3.70;;
64637;SDS011;51049;45.046;38.950;2023-05-07T12:03:29;7.40;;;3.30;;
64637;SDS011;51049;45.046;38.950;2023-05-07T12:05:55;24.30;;;4.35;;
64637;SDS011;51049;45.046;38.950;2023-05-07T12:08:21;10.10;;;3.88;;
64637;SDS011;51049;45.046;38.950;2023-05-07T12:10:48;16.10;;;3.83;;
64637;SDS011;51049;45.046;38.950;2023-05-07T12:13:16;10.50;;;3.90;;
64637;SDS011;51049;45.046;38.950;2023-05-07T12:15:43;7.95;;;3.08;;
64637;SDS011;51049;45.046;38.950;2023-05-07T12:18:10;10.73;;;4.57;;
64637;SDS011;51049;45.046;38.950;2023-05-07T12:20:38;10.82;;;4.05;;
64637;SDS011;51049;45.046;38.950;2023-05-07T12:23:04;9.73;;;3.45;;
64637;SDS011;51049;45.046;38.950;2023-05-07T12:25:40;7.75;;;3.35;;
64637;SDS011;51049;45.046;38.950;2023-05-07T12:28:13;8.68;;;3.42;;
64637;SDS011;51049;45.046;38.950;2023-05-07T12:30:43;11.88;;;3.08;;
64637;SDS011;51049;45.046;38.950;2023-05-07T12:33:10;8.60;;;3.50;;
64637;SDS011;51049;45.046;38.950;2023-05-07T12:35:37;8.77;;;2.30;;
64637;SDS011;51049;45.046;38.950;2023-05-07T12:38:09;6.60;;;2.88;;
64637;SDS011;51049;45.046;38.950;2023-05-07T12:40:44;5.93;;;2.67;;
64637;SDS011;51049;45.046;38.950;2023-05-07T12:43:16;10.65;;;3.20;;
64637;SDS011;51049;45.046;38.950;2023-05-07T12:45:43;9.35;;;3.10;;
64637;SDS011;51049;45.046;38.950;2023-05-07T12:48:10;16.08;;;2.95;;
64637;SDS011;51049;45.046;38.950;2023-05-07T12:50:36;5.35;;;2.60;;
64637;SDS011;51049;45.046;38.950;2023-05-07T12:53:03;5.30;;;3.10;;
64637;SDS011;51049;45.046;38.950;2023-05-07T12:55:43;6.57;;;2.75;;
64637;SDS011;51049;45.046;38.950;2023-05-07T12:58:14;9.52;;;3.50;;
64637;SDS011;51049;45.046;38.950;2023-05-07T13:00:47;7.35;;;3.28;;
64637;SDS011;51049;45.046;38.950;2023-05-07T13:03:27;9.52;;;3.70;;
64637;SDS011;51049;45.046;38.950;2023-05-07T13:05:55;9.73;;;3.65;;
64637;SDS011;51049;45.046;38.950;2023-05-07T13:08:36;8.45;;;3.67;;
64637;SDS011;51049;45.046;38.950;2023-05-07T13:11:06;7.55;;;3.47;;
64637;SDS011;51049;45.046;38.950;2023-05-07T13:13:34;14.50;;;3.55;;
64637;SDS011;51049;45.046;38.950;2023-05-07T13:16:01;14.20;;;4.35;;
64637;SDS011;51049;45.046;38.950;2023-05-07T13:18:31;10.27;;;3.38;;
64637;SDS011;51049;45.046;38.950;2023-05-07T13:20:57;9.43;;;3.40;;
64637;SDS011;51049;45.046;38.950;2023-05-07T13:23:24;11.23;;;3.95;;
64637;SDS011;51049;45.046;38.950;2023-05-07T13:25:50;10.82;;;3.83;;
64637;SDS011;51049;45.046;38.950;2023-05-07T13:28:19;9.80;;;3.65;;
64637;SDS011;51049;45.046;38.950;2023-05-07T13:30:46;11.60;;;3.38;;
64637;SDS011;51049;45.046;38.950;2023-05-07T13:33:12;9.15;;;3.35;;
64637;SDS011;51049;45.046;38.950;2023-05-07T13:35:38;12.82;;;4.28;;
64637;SDS011;51049;45.046;38.950;2023-05-07T13:38:05;5.68;;;2.47;;
64637;SDS011;51049;45.046;38.950;2023-05-07T13:40:31;11.63;;;2.92;;
64637;SDS011;51049;45.046;38.950;2023-05-07T13:42:57;11.13;;;4.30;;
64637;SDS011;51049;45.046;38.950;2023-05-07T13:45:25;6.90;;;3.00;;
64637;SDS011;51049;45.046;38.950;2023-05-07T13:47:52;6.18;;;2.83;;
64637;SDS011;51049;45.046;38.950;2023-05-07T13:50:18;10.02;;;2.53;;
64637;SDS011;51049;45.046;38.950;2023-05-07T13:52:44;10.68;;;3.90;;
64637;SDS011;51049;45.046;38.950;2023-05-07T13:55:19;9.18;;;3.13;;
64637;SDS011;51049;45.046;38.950;2023-05-07T13:57:46;14.55;;;5.32;;
64637;SDS011;51049;45.046;38.950;2023-05-07T14:00:12;9.15;;;3.70;;
64637;SDS011;51049;45.046;38.950;2023-05-07T14:02:43;31.50;;;12.13;;
64637;SDS011;51049;45.046;38.950;2023-05-07T14:05:09;33.80;;;12.18;;
64637;SDS011;51049;45.046;38.950;2023-05-07T14:07:35;30.73;;;11.50;;
64637;SDS011;51049;45.046;38.950;2023-05-07T14:10:01;34.13;;;14.68;;
64637;SDS011;51049;45.046;38.950;2023-05-07T14:12:28;35.97;;;14.65;;
64637;SDS011;51049;45.046;38.950;2023-05-07T14:14:54;59.00;;;23.80;;
64637;SDS011;51049;45.046;38.950;2023-05-07T14:17:20;42.70;;;13.40;;
64637;SDS011;51049;45.046;38.950;2023-05-07T14:19:48;23.42;;;8.65;;
64637;SDS011;51049;45.046;38.950;2023-05-07T14:22:14;25.33;;;9.68;;
64637;SDS011;51049;45.046;38.950;2023-05-07T14:24:40;14.52;;;5.93;;
64637;SDS011;51049;45.046;38.950;2023-05-07T14:27:06;30.17;;;9.40;;
64637;SDS011;51049;45.046;38.950;2023-05-07T14:29:32;10.45;;;4.28;;
64637;SDS011;51049;45.046;38.950;2023-05-07T14:32:00;35.97;;;14.40;;
64637;SDS011;51049;45.046;38.950;2023-05-07T14:34:27;55.80;;;22.40;;
64637;SDS011;51049;45.046;38.950;2023-05-07T14:36:53;36.40;;;13.82;;
64637;SDS011;51049;45.046;38.950;2023-05-07T14:39:19;32.70;;;12.43;;
64637;SDS011;51049;45.046;38.950;2023-05-07T14:41:45;30.77;;;12.70;;
64637;SDS011;51049;45.046;38.950;2023-05-07T14:44:11;29.13;;;12.75;;
64637;SDS011;51049;45.046;38.950;2023-05-07T14:46:36;15.55;;;6.45;;
64637;SDS011;51049;45.046;38.950;2023-05-07T14:49:02;17.33;;;5.10;;